This is the latest recevied weather packets stored in our database for station/object IZ1RFL-3. If no packets are shown the sender has not sent any weather packets the latest 10 day(s).
| Time | Temp. | Humidity | Pressure | Rain* | Wind** | Luminosity | Snow |
|---|---|---|---|---|---|---|---|
| 1777823165 | 20.56° C | 37% | 1017.5 hPa | - | - | - | - |
| 1777822265 | 20.56° C | 36% | 1017.5 hPa | - | - | - | - |
| 1777821364 | 20.56° C | 37% | 1017.7 hPa | - | - | - | - |
| 1777820465 | 20.56° C | 36% | 1017.9 hPa | - | - | - | - |
| 1777819564 | 20.56° C | 36% | 1017.7 hPa | - | - | - | - |
| 1777818664 | 22.22° C | 32% | 1017.8 hPa | - | - | - | - |
| 1777817765 | 20.56° C | 35% | 1018.3 hPa | - | - | - | - |
| 1777816865 | 21.11° C | 34% | 1018.3 hPa | - | - | - | - |
| 1777815964 | 21.11° C | 34% | 1018.4 hPa | - | - | - | - |
| 1777815064 | 20.56° C | 35% | 1018.6 hPa | - | - | - | - |
| 1777814165 | 20.56° C | 33% | 1018.8 hPa | - | - | - | - |
| 1777813265 | 21.11° C | 30% | 1019 hPa | - | - | - | - |
| 1777812365 | 22.22° C | 28% | 1019 hPa | - | - | - | - |
| 1777811465 | 22.22° C | 29% | 1019.2 hPa | - | - | - | - |
| 1777810564 | 22.78° C | 29% | 1019.3 hPa | - | - | - | - |
| 1777809665 | 23.89° C | 28% | 1019.3 hPa | - | - | - | - |
| 1777808764 | 22.22° C | 31% | 1019.3 hPa | - | - | - | - |
| 1777807864 | 22.22° C | 32% | 1019.4 hPa | - | - | - | - |
| 1777806964 | 22.22° C | 31% | 1019.4 hPa | - | - | - | - |
| 1777806064 | 22.78° C | 29% | 1019.6 hPa | - | - | - | - |
| 1777805165 | 22.22° C | 30% | 1019.8 hPa | - | - | - | - |
| 1777804264 | 22.22° C | 35% | 1019.8 hPa | - | - | - | - |
| 1777803364 | 23.33° C | 30% | 1019.7 hPa | - | - | - | - |
| 1777802464 | 21.67° C | 36% | 1019.7 hPa | - | - | - | - |
| 1777801564 | 21.67° C | 38% | 1020.2 hPa | - | - | - | - |
* Rain since midnight (hover to see other rain measurements)
** Current wind speed in m/s (hover to see current wind gust speed)